createdAt,value
2023-05-21T00:00:30.974Z,9.43
2023-05-21T00:02:59.381Z,10.13
2023-05-21T00:05:26.238Z,9.68
2023-05-21T00:07:54.845Z,9.25
2023-05-21T00:10:21.600Z,10.02
2023-05-21T00:12:48.273Z,8.65
2023-05-21T00:15:17.128Z,8.77
2023-05-21T00:17:44.510Z,10.38
2023-05-21T00:20:11.699Z,8.45
2023-05-21T00:22:38.329Z,9.77
2023-05-21T00:25:05.229Z,7.95
2023-05-21T00:27:32.093Z,9.18
2023-05-21T00:29:58.867Z,8.65
2023-05-21T00:32:25.504Z,7.97
2023-05-21T00:34:52.181Z,7.47
2023-05-21T00:37:19.441Z,7.53
2023-05-21T00:39:46.309Z,8.35
2023-05-21T00:42:13.074Z,7.53
2023-05-21T00:44:40.275Z,7.60
2023-05-21T00:47:08.126Z,8.93
2023-05-21T00:49:34.839Z,9.40
2023-05-21T00:52:01.723Z,8.68
2023-05-21T00:54:29.000Z,8.88
2023-05-21T00:56:56.161Z,9.05
2023-05-21T00:59:23.836Z,9.05
2023-05-21T01:01:56.397Z,8.55
2023-05-21T01:04:24.116Z,9.73
2023-05-21T01:06:53.385Z,8.07
2023-05-21T01:09:20.395Z,7.85
2023-05-21T01:11:48.960Z,8.35
2023-05-21T01:14:17.374Z,9.77
2023-05-21T01:16:48.509Z,11.63
2023-05-21T01:21:46.081Z,8.93
2023-05-21T01:24:14.771Z,10.38
2023-05-21T01:30:56.543Z,8.40
2023-05-21T01:33:26.839Z,9.35
2023-05-21T01:36:03.244Z,9.93
2023-05-21T01:38:34.596Z,9.70
2023-05-21T01:41:08.333Z,9.98
2023-05-21T01:43:39.451Z,10.02
2023-05-21T01:46:08.204Z,8.35
2023-05-21T01:48:36.133Z,8.57
2023-05-21T01:51:04.435Z,9.00
2023-05-21T01:53:31.223Z,8.52
2023-05-21T01:55:59.298Z,8.50
2023-05-21T01:58:26.394Z,9.30
2023-05-21T02:00:53.139Z,9.07
2023-05-21T02:03:21.612Z,8.50
2023-05-21T02:05:48.514Z,8.30
2023-05-21T02:08:15.650Z,9.65
2023-05-21T02:10:42.438Z,9.98
2023-05-21T02:13:09.441Z,9.10
2023-05-21T02:15:36.280Z,9.38
2023-05-21T02:18:03.566Z,8.68
2023-05-21T02:20:30.938Z,8.82
2023-05-21T02:22:57.608Z,9.38
2023-05-21T02:25:24.262Z,9.95
2023-05-21T02:27:54.116Z,9.52
2023-05-21T02:30:21.065Z,10.23
2023-05-21T02:32:48.942Z,9.63
2023-05-21T02:35:16.223Z,8.48
2023-05-21T02:37:44.209Z,10.43
2023-05-21T02:40:11.663Z,10.30
2023-05-21T02:42:40.264Z,9.98
2023-05-21T02:45:10.984Z,9.25
2023-05-21T02:47:39.303Z,9.50
2023-05-21T02:50:08.236Z,9.27
2023-05-21T02:52:39.975Z,10.35
2023-05-21T02:55:07.113Z,9.85
2023-05-21T02:57:33.796Z,9.23
2023-05-21T03:00:00.495Z,9.80
2023-05-21T03:02:27.412Z,10.40
2023-05-21T03:04:54.658Z,9.57
2023-05-21T03:07:21.745Z,10.15
2023-05-21T03:09:48.480Z,10.43
2023-05-21T03:12:15.336Z,10.70
2023-05-21T03:14:46.400Z,10.35
2023-05-21T03:17:16.954Z,10.23
2023-05-21T03:19:44.329Z,9.68
2023-05-21T03:22:11.422Z,9.00
2023-05-21T03:24:38.946Z,9.90
2023-05-21T03:27:07.113Z,9.60
2023-05-21T03:29:34.683Z,9.85
2023-05-21T03:32:02.655Z,10.13
2023-05-21T03:34:31.088Z,10.00
2023-05-21T03:36:58.597Z,8.52
2023-05-21T03:39:26.438Z,9.20
2023-05-21T03:41:54.746Z,8.63
2023-05-21T03:44:32.653Z,8.98
2023-05-21T03:47:17.936Z,8.63
2023-05-21T03:49:44.971Z,9.85
2023-05-21T03:52:11.889Z,9.02
2023-05-21T03:54:38.594Z,9.40
2023-05-21T03:57:07.997Z,8.63
2023-05-21T03:59:34.966Z,9.57
2023-05-21T04:02:01.796Z,9.73
2023-05-21T04:04:29.508Z,11.20
2023-05-21T04:06:56.416Z,10.52
2023-05-21T04:09:23.259Z,12.55
2023-05-21T04:11:51.993Z,9.98
2023-05-21T04:14:18.702Z,9.23
2023-05-21T04:16:45.876Z,10.60
2023-05-21T04:19:12.607Z,10.75
2023-05-21T04:21:40.412Z,11.43
2023-05-21T04:24:07.911Z,10.68
2023-05-21T04:26:52.889Z,10.52
2023-05-21T04:29:21.145Z,10.57
2023-05-21T04:31:49.740Z,11.60
2023-05-21T04:34:17.944Z,10.98
2023-05-21T04:36:45.472Z,11.73
2023-05-21T04:39:13.478Z,10.32
2023-05-21T04:41:40.806Z,10.75
2023-05-21T04:44:08.390Z,13.85
2023-05-21T04:46:35.271Z,10.55
2023-05-21T04:49:05.403Z,10.07
2023-05-21T04:51:32.040Z,11.27
2023-05-21T04:53:58.781Z,10.57
2023-05-21T04:56:26.779Z,11.20
2023-05-21T04:58:54.288Z,11.10
2023-05-21T05:01:25.575Z,11.13
2023-05-21T05:03:53.024Z,11.02
2023-05-21T05:06:19.868Z,11.07
2023-05-21T05:08:46.566Z,11.38
2023-05-21T05:11:15.006Z,10.75
2023-05-21T05:13:42.065Z,10.85
2023-05-21T05:16:09.287Z,11.13
2023-05-21T05:18:36.530Z,11.05
2023-05-21T05:21:03.409Z,10.48
2023-05-21T05:23:30.466Z,11.57
2023-05-21T05:25:57.272Z,11.20
2023-05-21T05:28:23.987Z,11.02
2023-05-21T05:30:50.729Z,12.93
2023-05-21T05:33:22.727Z,11.80
2023-05-21T05:35:49.520Z,13.00
2023-05-21T05:38:17.059Z,13.15
2023-05-21T05:40:43.884Z,15.32
2023-05-21T05:43:10.544Z,12.95
2023-05-21T05:45:37.392Z,14.38
2023-05-21T05:48:10.561Z,16.40
2023-05-21T05:50:37.291Z,15.23
2023-05-21T05:53:04.022Z,14.48
2023-05-21T05:55:31.350Z,13.07
2023-05-21T05:57:58.050Z,12.05
2023-05-21T06:00:24.756Z,11.75
2023-05-21T06:02:51.928Z,13.52
2023-05-21T06:05:19.932Z,14.10
2023-05-21T06:07:46.790Z,13.13
2023-05-21T06:10:13.522Z,13.43
2023-05-21T06:12:40.181Z,13.32
2023-05-21T06:15:07.433Z,14.75
2023-05-21T06:17:34.715Z,14.88
2023-05-21T06:20:02.199Z,16.42
2023-05-21T06:22:29.521Z,14.88
2023-05-21T06:25:01.554Z,15.98
2023-05-21T06:27:28.197Z,14.80
2023-05-21T06:29:58.049Z,16.80
2023-05-21T06:32:25.328Z,15.13
2023-05-21T06:34:52.081Z,15.43
2023-05-21T06:37:21.300Z,16.58
2023-05-21T06:39:48.052Z,17.38
2023-05-21T06:42:14.984Z,16.52
2023-05-21T06:44:56.033Z,16.98
2023-05-21T06:47:28.228Z,17.67
2023-05-21T06:49:55.925Z,16.95
2023-05-21T06:52:22.632Z,17.58
2023-05-21T06:54:49.436Z,16.27
2023-05-21T06:57:16.317Z,18.05
2023-05-21T06:59:43.433Z,17.90
2023-05-21T07:02:10.180Z,17.17
2023-05-21T07:04:37.076Z,17.90
2023-05-21T07:07:06.505Z,18.15
2023-05-21T07:09:33.247Z,18.67
2023-05-21T07:12:00.040Z,18.60
2023-05-21T07:14:27.032Z,18.63
2023-05-21T07:16:53.847Z,17.83
2023-05-21T07:19:20.730Z,18.52
2023-05-21T07:21:49.281Z,19.15
2023-05-21T07:24:16.458Z,19.63
2023-05-21T07:26:43.121Z,20.52
2023-05-21T07:29:10.997Z,20.90
2023-05-21T07:31:38.127Z,19.52
2023-05-21T07:34:06.074Z,19.42
2023-05-21T07:36:34.835Z,18.58
2023-05-21T07:39:02.545Z,19.45
2023-05-21T07:41:29.519Z,19.55
2023-05-21T07:43:57.640Z,18.77
2023-05-21T07:46:24.351Z,19.48
2023-05-21T07:48:54.697Z,18.63
2023-05-21T07:51:21.860Z,17.67
2023-05-21T07:53:48.546Z,19.67
2023-05-21T07:56:17.641Z,19.13
2023-05-21T07:58:45.796Z,17.80
2023-05-21T08:01:13.820Z,18.80
2023-05-21T08:03:40.565Z,17.92
2023-05-21T08:06:07.590Z,17.63
2023-05-21T08:08:34.328Z,17.58
2023-05-21T08:11:01.848Z,18.42
2023-05-21T08:13:29.300Z,17.38
2023-05-21T08:15:56.578Z,17.88
2023-05-21T08:18:23.912Z,17.35
2023-05-21T08:20:52.448Z,18.23
2023-05-21T08:23:20.647Z,18.77
2023-05-21T08:25:53.286Z,17.73
2023-05-21T08:28:22.380Z,17.90
2023-05-21T08:30:49.058Z,16.45
2023-05-21T08:33:20.885Z,17.63
2023-05-21T08:35:47.993Z,18.10
2023-05-21T08:38:40.937Z,17.27
2023-05-21T08:41:23.764Z,16.70
2023-05-21T08:43:56.643Z,19.48
2023-05-21T08:46:24.948Z,18.38
2023-05-21T08:48:55.124Z,18.40
2023-05-21T08:51:22.625Z,17.20
2023-05-21T08:53:51.886Z,18.33
2023-05-21T08:56:21.214Z,16.75
2023-05-21T08:58:53.958Z,18.40
2023-05-21T09:01:24.918Z,18.17
2023-05-21T09:04:21.293Z,18.30
2023-05-21T09:06:52.241Z,17.88
2023-05-21T09:09:33.256Z,17.65
2023-05-21T09:12:00.921Z,17.58
2023-05-21T09:14:27.974Z,17.08
2023-05-21T09:17:01.430Z,18.05
2023-05-21T09:19:30.259Z,16.40
2023-05-21T09:22:02.624Z,18.45
2023-05-21T09:24:35.853Z,17.92
2023-05-21T09:27:06.985Z,17.77
2023-05-21T09:29:34.441Z,17.83
2023-05-21T09:32:07.010Z,17.85
2023-05-21T09:34:36.320Z,17.75
2023-05-21T09:37:04.921Z,17.67
2023-05-21T09:39:33.505Z,15.77
2023-05-21T09:42:02.817Z,17.70
2023-05-21T09:44:29.521Z,16.67
2023-05-21T09:47:00.574Z,17.33
2023-05-21T09:49:28.098Z,17.38
2023-05-21T09:51:59.027Z,17.33
2023-05-21T09:54:33.343Z,17.50
2023-05-21T09:57:03.201Z,15.93
2023-05-21T09:59:39.456Z,16.13
2023-05-21T10:02:18.138Z,18.17
2023-05-21T10:04:44.918Z,17.23
2023-05-21T10:07:11.900Z,16.70
2023-05-21T10:09:38.986Z,17.52
2023-05-21T10:12:06.623Z,17.08
2023-05-21T10:14:34.441Z,18.20
2023-05-21T10:17:01.260Z,16.70
2023-05-21T10:19:30.411Z,17.75
2023-05-21T10:21:57.288Z,17.33
2023-05-21T10:24:24.617Z,18.95
2023-05-21T10:26:51.326Z,18.10
2023-05-21T10:29:19.771Z,17.95
2023-05-21T10:31:49.721Z,20.05
2023-05-21T10:34:16.572Z,18.38
2023-05-21T10:36:43.705Z,18.50
2023-05-21T10:39:12.798Z,17.63
2023-05-21T10:41:50.811Z,18.00
2023-05-21T10:44:37.347Z,18.05
2023-05-21T10:47:18.702Z,18.50
2023-05-21T10:50:13.081Z,18.85
2023-05-21T10:52:54.736Z,17.90
2023-05-21T10:55:39.694Z,19.73
2023-05-21T10:58:32.996Z,18.67
2023-05-21T11:01:01.528Z,18.50
2023-05-21T11:03:31.013Z,17.80
2023-05-21T11:05:58.029Z,19.58
2023-05-21T11:08:25.449Z,18.63
2023-05-21T11:10:58.199Z,18.98
2023-05-21T11:13:32.698Z,19.92
2023-05-21T11:15:59.481Z,17.73
2023-05-21T11:18:35.195Z,18.73
2023-05-21T11:21:06.182Z,17.27
2023-05-21T11:23:51.383Z,18.60
2023-05-21T11:26:29.726Z,16.75
2023-05-21T11:29:14.985Z,17.88
2023-05-21T11:32:05.785Z,16.70
2023-05-21T11:34:43.617Z,18.27
2023-05-21T11:37:20.783Z,14.90
2023-05-21T11:39:48.334Z,15.32
2023-05-21T11:42:37.372Z,16.20
2023-05-21T11:45:04.839Z,14.63
2023-05-21T11:47:32.673Z,17.25
2023-05-21T11:50:01.052Z,15.32
2023-05-21T11:52:32.817Z,15.27
2023-05-21T11:54:59.777Z,15.18
2023-05-21T11:57:30.857Z,16.42
2023-05-21T12:00:02.247Z,17.17
2023-05-21T12:02:32.854Z,15.38
2023-05-21T12:05:00.493Z,15.20
2023-05-21T12:07:29.811Z,14.30
2023-05-21T12:09:57.044Z,15.65
2023-05-21T12:12:33.017Z,16.42
2023-05-21T12:15:10.260Z,14.80
2023-05-21T12:17:37.042Z,14.88
2023-05-21T12:20:07.346Z,15.05
2023-05-21T12:22:33.999Z,15.63
2023-05-21T12:25:02.065Z,14.48
2023-05-21T12:27:31.047Z,15.80
2023-05-21T12:29:58.775Z,15.32
2023-05-21T12:32:27.538Z,14.32
2023-05-21T12:34:54.855Z,13.70
2023-05-21T12:37:22.756Z,13.35
2023-05-21T12:39:54.021Z,14.38
2023-05-21T12:42:36.819Z,13.60
2023-05-21T12:45:08.117Z,13.88
2023-05-21T12:47:34.817Z,14.10
2023-05-21T12:50:02.374Z,14.23
2023-05-21T12:52:29.250Z,14.15
2023-05-21T12:54:56.613Z,12.32
2023-05-21T12:57:24.864Z,13.02
2023-05-21T12:59:52.142Z,12.80
2023-05-21T13:02:34.793Z,11.68
2023-05-21T13:05:02.808Z,11.90
2023-05-21T13:07:31.143Z,11.95
2023-05-21T13:09:58.095Z,12.70
2023-05-21T13:12:26.762Z,13.43
2023-05-21T13:14:54.623Z,13.00
2023-05-21T13:17:21.598Z,12.68
2023-05-21T13:20:14.869Z,12.07
2023-05-21T13:22:43.117Z,12.07
2023-05-21T13:25:11.428Z,10.45
2023-05-21T13:27:39.143Z,11.52
2023-05-21T13:30:06.932Z,10.70
2023-05-21T13:32:33.908Z,11.63
2023-05-21T13:35:00.734Z,11.48
2023-05-21T13:37:27.425Z,11.00
2023-05-21T13:39:54.154Z,11.40
2023-05-21T13:42:21.222Z,11.18
2023-05-21T13:44:48.579Z,11.20
2023-05-21T13:47:15.871Z,10.98
2023-05-21T13:49:42.777Z,10.65
2023-05-21T13:52:09.918Z,11.60
2023-05-21T13:54:39.552Z,10.13
2023-05-21T13:57:06.354Z,10.50
2023-05-21T13:59:33.787Z,10.85
2023-05-21T14:02:03.095Z,10.95
2023-05-21T14:04:29.822Z,10.93
2023-05-21T14:06:56.756Z,9.63
2023-05-21T14:09:27.381Z,11.10
2023-05-21T14:11:55.112Z,9.95
2023-05-21T14:14:22.683Z,9.52
2023-05-21T14:16:50.470Z,10.07
2023-05-21T14:19:17.401Z,9.95
2023-05-21T14:21:44.244Z,9.57
2023-05-21T14:24:10.931Z,10.68
2023-05-21T14:26:40.458Z,9.95
2023-05-21T14:29:07.178Z,9.45
2023-05-21T14:31:33.870Z,10.57
2023-05-21T14:34:02.806Z,10.88
2023-05-21T14:36:29.744Z,8.90
2023-05-21T14:38:56.399Z,9.70
2023-05-21T14:41:27.068Z,9.25
2023-05-21T14:43:54.136Z,8.10
2023-05-21T14:46:21.532Z,10.02
2023-05-21T14:48:48.191Z,9.90
2023-05-21T14:51:14.961Z,10.27
2023-05-21T14:53:41.860Z,8.90
2023-05-21T14:56:08.556Z,9.27
2023-05-21T14:58:35.234Z,9.43
2023-05-21T15:01:02.615Z,10.05
2023-05-21T15:03:29.414Z,9.82
2023-05-21T15:05:56.187Z,9.32
2023-05-21T15:08:23.152Z,10.48
2023-05-21T15:10:50.235Z,9.32
2023-05-21T15:13:16.907Z,10.68
2023-05-21T15:15:43.670Z,10.30
2023-05-21T15:18:11.628Z,9.45
2023-05-21T15:20:38.337Z,10.35
2023-05-21T15:23:16.656Z,9.88
2023-05-21T15:25:44.619Z,9.43
2023-05-21T15:28:12.224Z,8.43
2023-05-21T15:30:39.136Z,9.32
2023-05-21T15:33:05.846Z,9.13
2023-05-21T15:35:32.692Z,9.68
2023-05-21T15:37:59.548Z,9.65
2023-05-21T15:40:27.258Z,9.35
2023-05-21T15:42:55.350Z,9.35
2023-05-21T15:45:22.012Z,9.43
2023-05-21T15:47:48.768Z,8.60
2023-05-21T15:50:15.536Z,8.93
2023-05-21T15:52:42.326Z,8.82
2023-05-21T15:55:09.356Z,8.63
2023-05-21T15:57:36.067Z,9.13
2023-05-21T16:00:02.971Z,7.80
2023-05-21T16:02:35.335Z,8.13
2023-05-21T16:05:02.050Z,8.57
2023-05-21T16:07:28.720Z,7.88
2023-05-21T16:09:55.361Z,8.13
2023-05-21T16:12:22.162Z,7.38
2023-05-21T16:14:52.071Z,7.28
2023-05-21T16:17:19.805Z,8.45
2023-05-21T16:19:47.410Z,8.13
2023-05-21T16:22:14.711Z,7.60
2023-05-21T16:24:41.357Z,7.00
2023-05-21T16:27:08.014Z,6.72
2023-05-21T16:29:34.653Z,7.88
2023-05-21T16:32:01.350Z,7.97
2023-05-21T16:34:28.019Z,7.35
2023-05-21T16:36:54.838Z,6.97
2023-05-21T16:39:21.529Z,7.15
2023-05-21T16:41:48.213Z,7.57
2023-05-21T16:44:14.820Z,7.38
2023-05-21T16:46:41.606Z,6.90
2023-05-21T16:49:08.421Z,7.40
2023-05-21T16:51:35.064Z,7.90
2023-05-21T16:54:04.161Z,7.75
2023-05-21T16:56:31.367Z,7.65
2023-05-21T16:58:58.021Z,6.95
2023-05-21T17:01:24.701Z,8.20
2023-05-21T17:03:51.633Z,8.27
2023-05-21T17:06:18.476Z,7.22
2023-05-21T17:08:45.106Z,7.05
2023-05-21T17:11:12.045Z,7.90
2023-05-21T17:13:41.870Z,8.32
2023-05-21T17:16:08.830Z,8.73
2023-05-21T17:18:35.747Z,8.18
2023-05-21T17:21:02.565Z,7.70
2023-05-21T17:23:29.249Z,7.18
2023-05-21T17:25:55.923Z,7.80
2023-05-21T17:28:22.568Z,8.65
2023-05-21T17:30:49.788Z,7.95
2023-05-21T17:33:16.711Z,9.13
2023-05-21T17:35:43.427Z,9.27
2023-05-21T17:38:10.331Z,11.43
2023-05-21T17:40:37.058Z,9.10
2023-05-21T17:43:04.824Z,7.82
2023-05-21T17:45:31.612Z,8.15
2023-05-21T17:48:00.172Z,8.13
2023-05-21T17:50:27.460Z,8.02
2023-05-21T17:52:54.107Z,7.15
2023-05-21T17:55:20.914Z,7.75
2023-05-21T17:57:47.603Z,8.60
2023-05-21T18:00:14.366Z,7.50
2023-05-21T18:02:41.294Z,8.85
2023-05-21T18:05:08.090Z,8.98
2023-05-21T18:07:34.678Z,7.53
2023-05-21T18:10:01.488Z,8.23
2023-05-21T18:12:28.136Z,8.55
2023-05-21T18:14:55.039Z,9.00
2023-05-21T18:17:21.738Z,7.97
2023-05-21T18:19:48.624Z,7.93
2023-05-21T18:22:15.324Z,7.78
2023-05-21T18:24:42.051Z,6.93
2023-05-21T18:27:08.764Z,8.18
2023-05-21T18:29:36.727Z,8.48
2023-05-21T18:32:04.155Z,8.15
2023-05-21T18:34:30.973Z,7.35
2023-05-21T18:36:58.765Z,7.95
2023-05-21T18:39:27.046Z,8.38
2023-05-21T18:42:05.188Z,8.70
2023-05-21T18:44:39.244Z,7.55
2023-05-21T18:47:06.092Z,7.88
2023-05-21T18:49:35.274Z,7.03
2023-05-21T18:52:02.018Z,8.23
2023-05-21T18:54:28.631Z,8.23
2023-05-21T18:56:55.499Z,8.18
2023-05-21T18:59:22.195Z,8.82
2023-05-21T19:01:48.912Z,8.77
2023-05-21T19:04:16.105Z,8.20
2023-05-21T19:06:44.594Z,8.15
2023-05-21T19:09:11.479Z,8.38
2023-05-21T19:11:38.095Z,8.60
2023-05-21T19:14:04.913Z,7.90
2023-05-21T19:16:31.583Z,9.00
2023-05-21T19:18:58.571Z,8.80
2023-05-21T19:21:25.261Z,8.82
2023-05-21T19:23:53.703Z,9.10
2023-05-21T19:26:22.473Z,9.13
2023-05-21T19:28:53.320Z,8.73
2023-05-21T19:31:21.083Z,8.90
2023-05-21T19:33:47.911Z,9.18
2023-05-21T19:36:14.687Z,9.57
2023-05-21T19:38:48.327Z,8.10
2023-05-21T19:41:18.765Z,8.63
2023-05-21T19:43:46.040Z,9.07
2023-05-21T19:46:12.939Z,8.85
2023-05-21T19:48:39.763Z,8.98
2023-05-21T19:51:06.424Z,8.27
2023-05-21T19:53:33.108Z,8.52
2023-05-21T19:56:00.019Z,10.68
2023-05-21T19:58:29.415Z,7.82
2023-05-21T20:00:58.268Z,8.13
2023-05-21T20:03:26.514Z,8.25
2023-05-21T20:05:53.449Z,8.05
2023-05-21T20:08:20.416Z,7.45
2023-05-21T20:10:48.841Z,7.20
2023-05-21T20:15:49.812Z,6.80
2023-05-21T20:18:17.180Z,7.65
2023-05-21T20:20:43.912Z,6.95
2023-05-21T20:23:10.574Z,6.63
2023-05-21T20:25:37.228Z,7.00
2023-05-21T20:28:05.300Z,8.13
2023-05-21T20:30:33.039Z,6.45
2023-05-21T20:33:03.195Z,7.05
2023-05-21T20:35:30.139Z,7.53
2023-05-21T20:37:56.828Z,7.32
2023-05-21T20:40:23.592Z,7.63
2023-05-21T20:42:54.043Z,6.50
2023-05-21T20:45:21.966Z,7.70
2023-05-21T20:47:49.977Z,6.82
2023-05-21T20:50:17.822Z,6.90
2023-05-21T20:52:47.004Z,6.93
2023-05-21T20:55:14.569Z,7.40
2023-05-21T20:57:41.507Z,6.47
2023-05-21T21:00:10.606Z,6.60
2023-05-21T21:02:38.672Z,5.85
2023-05-21T21:05:10.149Z,6.47
2023-05-21T21:10:04.248Z,7.05
2023-05-21T21:12:31.309Z,6.75
2023-05-21T21:14:57.951Z,6.35
2023-05-21T21:17:24.772Z,7.05
2023-05-21T21:19:51.475Z,7.47
2023-05-21T21:22:18.555Z,6.60
2023-05-21T21:24:45.709Z,6.35
2023-05-21T21:27:12.629Z,7.18
2023-05-21T21:29:39.342Z,6.00
2023-05-21T21:32:06.316Z,6.88
2023-05-21T21:34:32.968Z,6.38
2023-05-21T21:36:59.632Z,7.03
2023-05-21T21:39:26.817Z,6.68
2023-05-21T21:41:53.548Z,7.53
2023-05-21T21:44:20.205Z,6.20
2023-05-21T21:46:46.957Z,6.03
2023-05-21T21:49:14.420Z,7.25
2023-05-21T21:51:41.447Z,6.10
2023-05-21T21:54:08.107Z,6.07
2023-05-21T21:56:35.409Z,7.07
2023-05-21T21:59:02.062Z,6.03
2023-05-21T22:01:28.826Z,6.72
2023-05-21T22:03:55.486Z,5.97
2023-05-21T22:06:22.211Z,6.80
2023-05-21T22:08:48.957Z,5.97
2023-05-21T22:11:15.778Z,6.55
2023-05-21T22:13:42.418Z,6.95
2023-05-21T22:16:11.840Z,5.57
2023-05-21T22:18:41.860Z,6.00
2023-05-21T22:21:10.148Z,7.00
2023-05-21T22:23:37.651Z,6.18
2023-05-21T22:26:04.545Z,6.72
2023-05-21T22:28:31.198Z,5.85
2023-05-21T22:30:58.547Z,6.13
2023-05-21T22:33:26.569Z,6.28
2023-05-21T22:35:54.169Z,6.90
2023-05-21T22:38:20.957Z,7.50
2023-05-21T22:40:50.871Z,7.13
2023-05-21T22:43:17.497Z,6.82
2023-05-21T22:45:44.380Z,6.18
2023-05-21T22:48:11.099Z,6.57
2023-05-21T22:50:38.625Z,7.18
2023-05-21T22:53:06.415Z,6.78
2023-05-21T22:55:33.167Z,7.18
2023-05-21T22:57:59.839Z,6.72
2023-05-21T23:00:26.752Z,7.97
2023-05-21T23:02:54.569Z,6.63
2023-05-21T23:05:21.849Z,7.68
2023-05-21T23:07:48.494Z,7.70
2023-05-21T23:10:15.125Z,6.63
2023-05-21T23:12:41.883Z,6.70
2023-05-21T23:15:10.014Z,6.93
2023-05-21T23:17:37.618Z,6.57
2023-05-21T23:20:05.591Z,6.88
2023-05-21T23:22:32.294Z,7.05
2023-05-21T23:24:58.998Z,6.68
2023-05-21T23:27:25.694Z,6.95
2023-05-21T23:29:52.508Z,6.65
2023-05-21T23:32:19.624Z,6.78
2023-05-21T23:34:46.365Z,6.90
2023-05-21T23:37:12.979Z,6.70
2023-05-21T23:39:39.837Z,7.70
2023-05-21T23:42:06.791Z,8.07
2023-05-21T23:44:33.458Z,8.45
2023-05-21T23:47:00.094Z,7.65
2023-05-21T23:49:26.751Z,7.75
2023-05-21T23:51:53.462Z,5.97
2023-05-21T23:54:20.176Z,7.38
2023-05-21T23:56:46.875Z,7.22
2023-05-21T23:59:14.563Z,7.38
